createdAt,value
2022-11-16T00:01:46.353Z,93338.75
2022-11-16T00:16:47.975Z,93329.69
2022-11-16T00:31:49.465Z,93330.94
2022-11-16T00:46:50.973Z,93320.78
2022-11-16T01:01:52.561Z,93294.69
2022-11-16T01:16:54.153Z,93271.78
2022-11-16T01:31:56.389Z,93278.28
2022-11-16T01:47:02.435Z,93274.34
2022-11-16T02:02:03.946Z,93252.31
2022-11-16T02:17:25.477Z,93239.84
2022-11-16T02:32:34.288Z,93230.13
2022-11-16T02:47:37.163Z,93226.75
2022-11-16T03:02:44.402Z,93222.03
2022-11-16T03:17:48.601Z,93200.41
2022-11-16T03:32:52.914Z,93196.56
2022-11-16T03:47:54.405Z,93202.31
2022-11-16T04:02:55.896Z,93187.47
2022-11-16T04:18:16.011Z,93163.53
2022-11-16T04:33:35.983Z,93153.72
2022-11-16T04:48:37.538Z,93144.13
2022-11-16T05:03:39.005Z,93156.38
2022-11-16T05:18:40.445Z,93140.41
2022-11-16T05:33:42.269Z,93143.47
2022-11-16T05:48:43.724Z,93145.34
2022-11-16T06:03:45.284Z,93142.13
2022-11-16T06:18:47.456Z,93149.38
2022-11-16T06:33:48.931Z,93142.69
2022-11-16T06:48:50.462Z,93138.53
2022-11-16T07:03:51.977Z,93145.09
2022-11-16T07:18:56.434Z,93141.72
2022-11-16T07:33:57.973Z,93134.69
2022-11-16T07:48:59.498Z,93125.28
2022-11-16T08:04:03.622Z,93116.38
2022-11-16T08:19:05.072Z,93100.28
2022-11-16T08:34:06.506Z,93077.47
2022-11-16T08:49:08.039Z,93079.16
2022-11-16T09:04:09.573Z,93072.44
2022-11-16T09:19:11.320Z,93061.50
2022-11-16T09:34:13.434Z,93019.19
2022-11-16T09:49:21.417Z,93005.75
2022-11-16T10:04:26.918Z,92982.34
2022-11-16T10:19:28.355Z,92956.50
2022-11-16T10:34:36.120Z,92941.38
2022-11-16T10:49:44.331Z,92921.66
2022-11-16T11:05:00.470Z,92894.97
2022-11-16T11:20:05.615Z,92863.34
2022-11-16T11:35:21.978Z,92849.94
2022-11-16T11:50:42.184Z,92842.94
2022-11-16T12:05:46.982Z,92819.31
2022-11-16T12:21:07.114Z,92798.75
2022-11-16T12:36:18.005Z,92779.69
2022-11-16T12:51:19.428Z,92770.28
2022-11-16T13:06:25.506Z,92762.06
2022-11-16T13:21:32.885Z,92746.00
2022-11-16T13:36:37.312Z,92745.88
2022-11-16T13:51:38.966Z,92748.88
2022-11-16T14:06:43.512Z,92739.00
2022-11-16T14:21:53.558Z,92724.63
2022-11-16T14:36:55.093Z,92726.72
2022-11-16T14:51:58.991Z,92712.50
2022-11-16T15:07:04.230Z,92711.66
2022-11-16T15:22:13.448Z,92708.63
2022-11-16T15:37:26.066Z,92692.31
2022-11-16T15:52:47.403Z,92694.22
2022-11-16T16:07:49.071Z,92722.38
2022-11-16T16:22:54.309Z,92706.06
2022-11-16T16:38:00.821Z,92709.72
2022-11-16T16:53:02.543Z,92708.47
2022-11-16T17:08:04.244Z,92695.31
2022-11-16T17:23:05.740Z,92681.19
2022-11-16T17:38:07.687Z,92674.50
2022-11-16T17:53:09.207Z,92663.13
2022-11-16T18:08:10.729Z,92651.66
2022-11-16T18:23:12.237Z,92637.38
2022-11-16T18:38:13.714Z,92632.97
2022-11-16T18:53:15.179Z,92642.50
2022-11-16T19:08:16.622Z,92629.44
2022-11-16T19:23:18.169Z,92626.22
2022-11-16T19:38:19.631Z,92628.50
2022-11-16T19:53:21.094Z,92626.34
2022-11-16T20:08:22.628Z,92608.53
2022-11-16T20:23:24.082Z,92606.91
2022-11-16T20:38:25.535Z,92565.22
2022-11-16T20:53:27.137Z,92557.59
2022-11-16T21:08:29.945Z,92547.78
2022-11-16T21:23:32.415Z,92550.97
2022-11-16T21:38:34.671Z,92534.84
2022-11-16T21:53:36.421Z,92521.00
2022-11-16T22:16:08.397Z,92510.00
2022-11-16T22:31:11.354Z,92495.34
2022-11-16T22:46:12.844Z,92478.72
2022-11-16T23:01:14.391Z,92447.22
2022-11-16T23:16:16.413Z,92458.59
2022-11-16T23:31:17.844Z,92463.44
2022-11-16T23:46:19.311Z,92448.88
